createdAt,value
2022-09-09T00:03:57.364Z,8.70
2022-09-09T00:06:45.280Z,8.63
2022-09-09T00:09:19.426Z,8.93
2022-09-09T00:12:00.785Z,8.68
2022-09-09T00:14:42.054Z,9.02
2022-09-09T00:17:15.615Z,8.27
2022-09-09T00:19:45.599Z,9.40
2022-09-09T00:22:26.427Z,7.70
2022-09-09T00:24:55.758Z,8.65
2022-09-09T00:27:30.440Z,7.72
2022-09-09T00:30:15.675Z,7.45
2022-09-09T00:32:42.778Z,7.53
2022-09-09T00:35:24.986Z,7.80
2022-09-09T00:37:55.798Z,8.20
2022-09-09T00:40:28.905Z,7.63
2022-09-09T00:43:07.746Z,8.13
2022-09-09T00:45:48.776Z,7.82
2022-09-09T00:48:17.334Z,8.13
2022-09-09T00:51:07.554Z,7.78
2022-09-09T00:53:57.246Z,7.28
2022-09-09T00:56:32.356Z,6.78
2022-09-09T00:59:13.494Z,7.05
2022-09-09T01:01:41.209Z,8.68
2022-09-09T01:04:17.716Z,8.00
2022-09-09T01:06:53.406Z,7.93
2022-09-09T01:09:46.232Z,7.83
2022-09-09T01:12:16.567Z,7.90
2022-09-09T01:14:43.432Z,7.60
2022-09-09T01:17:24.135Z,8.77
2022-09-09T01:20:08.094Z,8.25
2022-09-09T01:22:38.216Z,9.27
2022-09-09T01:25:22.467Z,8.25
2022-09-09T01:27:52.495Z,7.07
2022-09-09T01:30:20.130Z,7.90
2022-09-09T01:32:54.368Z,8.32
2022-09-09T01:35:34.168Z,8.45
2022-09-09T01:38:01.546Z,7.72
2022-09-09T01:40:28.448Z,7.25
2022-09-09T01:42:56.356Z,7.13
2022-09-09T01:45:24.926Z,6.75
2022-09-09T01:47:53.851Z,7.15
2022-09-09T01:50:24.601Z,7.75
2022-09-09T01:52:59.248Z,7.18
2022-09-09T01:55:40.823Z,7.55
2022-09-09T01:58:58.847Z,8.25
2022-09-09T02:01:31.942Z,7.53
2022-09-09T02:04:09.641Z,6.95
2022-09-09T02:06:39.994Z,8.38
2022-09-09T02:09:08.794Z,7.28
2022-09-09T02:11:36.137Z,7.75
2022-09-09T02:14:36.249Z,7.65
2022-09-09T02:17:10.686Z,7.97
2022-09-09T02:20:04.596Z,8.10
2022-09-09T02:22:35.759Z,7.55
2022-09-09T02:25:06.726Z,7.32
2022-09-09T02:27:33.815Z,7.60
2022-09-09T02:30:03.458Z,6.72
2022-09-09T02:32:33.454Z,7.28
2022-09-09T02:35:22.204Z,6.70
2022-09-09T02:37:52.754Z,6.97
2022-09-09T02:40:38.285Z,7.57
2022-09-09T02:43:05.496Z,7.03
2022-09-09T02:45:49.429Z,7.20
2022-09-09T02:48:27.624Z,7.15
2022-09-09T02:51:41.316Z,7.25
2022-09-09T02:54:45.687Z,6.93
2022-09-09T02:57:23.146Z,6.72
2022-09-09T02:59:51.381Z,7.22
2022-09-09T03:02:19.835Z,6.72
2022-09-09T03:04:52.053Z,7.45
2022-09-09T03:07:20.544Z,6.93
2022-09-09T03:09:47.488Z,7.88
2022-09-09T03:12:14.566Z,7.35
2022-09-09T03:14:41.564Z,6.32
2022-09-09T03:17:10.267Z,7.50
2022-09-09T03:19:37.334Z,6.80
2022-09-09T03:22:06.457Z,7.50
2022-09-09T03:24:33.421Z,7.53
2022-09-09T03:27:20.714Z,7.95
2022-09-09T03:29:53.700Z,7.63
2022-09-09T03:32:23.588Z,7.80
2022-09-09T03:34:50.854Z,7.85
2022-09-09T03:37:18.940Z,7.60
2022-09-09T03:39:46.390Z,7.10
2022-09-09T03:42:21.072Z,6.75
2022-09-09T03:44:51.171Z,7.20
2022-09-09T03:47:22.852Z,6.65
2022-09-09T03:49:49.815Z,7.35
2022-09-09T03:52:21.638Z,7.43
2022-09-09T03:54:50.436Z,7.55
2022-09-09T03:57:17.951Z,6.82
2022-09-09T03:59:45.353Z,7.13
2022-09-09T04:02:30.914Z,7.80
2022-09-09T04:04:58.332Z,7.03
2022-09-09T04:07:25.311Z,7.57
2022-09-09T04:09:52.406Z,8.27
2022-09-09T04:12:19.653Z,7.82
2022-09-09T04:14:46.523Z,8.50
2022-09-09T04:17:13.418Z,7.45
2022-09-09T04:19:40.408Z,8.18
2022-09-09T04:22:07.375Z,8.13
2022-09-09T04:24:34.277Z,8.50
2022-09-09T04:27:01.233Z,8.45
2022-09-09T04:29:46.735Z,7.80
2022-09-09T04:32:13.665Z,8.90
2022-09-09T04:34:42.435Z,9.60
2022-09-09T04:37:09.435Z,9.38
2022-09-09T04:39:36.486Z,8.43
2022-09-09T04:42:04.377Z,8.43
2022-09-09T04:44:31.468Z,8.07
2022-09-09T04:46:58.971Z,8.02
2022-09-09T04:49:26.900Z,8.23
2022-09-09T04:51:54.111Z,8.10
2022-09-09T04:54:21.013Z,7.53
2022-09-09T04:56:48.004Z,7.72
2022-09-09T04:59:14.997Z,7.85
2022-09-09T05:01:42.025Z,7.93
2022-09-09T05:04:09.686Z,8.02
2022-09-09T05:06:37.361Z,7.30
2022-09-09T05:09:04.640Z,7.30
2022-09-09T05:11:36.779Z,7.50
2022-09-09T05:14:04.282Z,7.22
2022-09-09T05:16:31.715Z,6.93
2022-09-09T05:19:00.205Z,8.45
2022-09-09T05:21:27.795Z,8.02
2022-09-09T05:23:54.802Z,8.70
2022-09-09T05:26:23.478Z,8.20
2022-09-09T05:29:09.406Z,8.07
2022-09-09T05:31:36.414Z,8.35
2022-09-09T05:34:03.602Z,8.80
2022-09-09T05:36:30.641Z,8.10
2022-09-09T05:38:57.690Z,7.93
2022-09-09T05:41:24.799Z,8.00
2022-09-09T05:43:51.960Z,7.85
2022-09-09T05:46:21.460Z,8.60
2022-09-09T05:48:52.080Z,8.00
2022-09-09T05:51:25.354Z,8.43
2022-09-09T05:53:52.736Z,8.38
2022-09-09T05:56:23.189Z,8.05
2022-09-09T05:58:50.751Z,7.57
2022-09-09T06:01:20.321Z,8.10
2022-09-09T06:03:49.067Z,8.00
2022-09-09T06:06:22.007Z,8.27
2022-09-09T06:08:52.072Z,8.20
2022-09-09T06:11:27.672Z,8.60
2022-09-09T06:13:55.803Z,7.93
2022-09-09T06:16:26.381Z,8.80
2022-09-09T06:18:55.042Z,8.70
2022-09-09T06:21:24.755Z,7.95
2022-09-09T06:23:59.093Z,9.20
2022-09-09T06:26:31.667Z,8.02
2022-09-09T06:29:00.124Z,9.13
2022-09-09T06:31:31.648Z,8.18
2022-09-09T06:33:59.948Z,8.85
2022-09-09T06:36:29.591Z,8.38
2022-09-09T06:38:57.028Z,8.55
2022-09-09T06:41:27.679Z,8.02
2022-09-09T06:43:54.678Z,9.60
2022-09-09T06:46:23.959Z,8.55
2022-09-09T06:48:51.489Z,8.98
2022-09-09T06:51:38.645Z,7.82
2022-09-09T06:54:05.734Z,7.63
2022-09-09T06:56:37.802Z,8.15
2022-09-09T06:59:07.057Z,7.00
2022-09-09T07:01:37.201Z,7.57
2022-09-09T07:04:08.687Z,8.15
2022-09-09T07:06:41.335Z,7.18
2022-09-09T07:09:10.515Z,7.35
2022-09-09T07:11:45.081Z,7.95
2022-09-09T07:14:15.775Z,8.73
2022-09-09T07:16:43.366Z,6.82
2022-09-09T07:19:11.727Z,7.82
2022-09-09T07:21:38.661Z,10.40
2022-09-09T07:24:08.487Z,12.43
2022-09-09T07:26:36.471Z,7.85
2022-09-09T07:29:03.542Z,6.85
2022-09-09T07:31:33.157Z,6.90
2022-09-09T07:34:01.066Z,6.65
2022-09-09T07:36:35.003Z,7.07
2022-09-09T07:39:05.898Z,7.10
2022-09-09T07:41:39.350Z,7.60
2022-09-09T07:44:08.938Z,7.68
2022-09-09T07:46:37.140Z,8.65
2022-09-09T07:49:04.814Z,7.55
2022-09-09T07:51:35.281Z,6.88
2022-09-09T07:54:05.630Z,7.88
2022-09-09T07:56:33.605Z,7.50
2022-09-09T07:59:00.913Z,7.50
2022-09-09T08:01:33.562Z,8.52
2022-09-09T08:04:06.739Z,7.22
2022-09-09T08:06:39.611Z,7.63
2022-09-09T08:09:08.092Z,7.43
2022-09-09T08:11:39.213Z,6.93
2022-09-09T08:14:11.953Z,7.55
2022-09-09T08:16:45.045Z,6.75
2022-09-09T08:19:12.326Z,7.00
2022-09-09T08:21:41.367Z,6.20
2022-09-09T08:24:11.552Z,6.43
2022-09-09T08:26:44.708Z,6.30
2022-09-09T08:29:14.325Z,6.78
2022-09-09T08:31:45.165Z,7.97
2022-09-09T08:34:12.406Z,10.23
2022-09-09T08:36:43.604Z,6.18
2022-09-09T08:39:12.272Z,6.30
2022-09-09T08:42:03.491Z,6.13
2022-09-09T08:44:59.531Z,6.22
2022-09-09T08:47:48.311Z,6.43
2022-09-09T08:50:27.805Z,5.97
2022-09-09T08:53:09.663Z,6.50
2022-09-09T08:55:37.140Z,6.18
2022-09-09T08:58:31.770Z,5.88
2022-09-09T09:01:10.929Z,6.20
2022-09-09T09:03:53.137Z,7.30
2022-09-09T09:06:28.975Z,5.63
2022-09-09T09:09:28.776Z,8.35
2022-09-09T09:12:02.562Z,7.75
2022-09-09T09:14:31.889Z,5.70
2022-09-09T09:17:05.695Z,8.57
2022-09-09T09:19:35.801Z,5.95
2022-09-09T09:22:25.615Z,4.88
2022-09-09T09:25:11.990Z,4.30
2022-09-09T09:27:50.812Z,4.88
2022-09-09T09:30:29.836Z,5.47
2022-09-09T09:33:03.585Z,5.25
2022-09-09T09:35:30.594Z,4.30
2022-09-09T09:40:59.211Z,5.22
2022-09-09T09:43:32.725Z,4.85
2022-09-09T09:46:16.766Z,4.80
2022-09-09T09:48:46.796Z,6.05
2022-09-09T09:51:19.004Z,5.10
2022-09-09T09:53:46.652Z,4.93
2022-09-09T09:56:16.107Z,3.92
2022-09-09T09:58:46.036Z,4.68
2022-09-09T10:01:26.849Z,4.25
2022-09-09T10:04:14.788Z,4.13
2022-09-09T10:06:41.856Z,4.18
2022-09-09T10:09:29.727Z,3.85
2022-09-09T10:12:05.688Z,4.30
2022-09-09T10:14:47.501Z,4.70
2022-09-09T10:17:58.156Z,5.32
2022-09-09T10:20:45.653Z,3.88
2022-09-09T10:23:45.411Z,3.67
2022-09-09T10:26:27.699Z,3.83
2022-09-09T10:28:55.637Z,4.35
2022-09-09T10:31:47.528Z,3.97
2022-09-09T10:34:51.215Z,4.55
2022-09-09T10:37:36.927Z,4.10
2022-09-09T10:40:40.511Z,4.80
2022-09-09T10:43:12.965Z,5.22
2022-09-09T10:46:10.595Z,4.63
2022-09-09T10:48:55.495Z,4.93
2022-09-09T10:51:27.295Z,4.57
2022-09-09T10:54:11.380Z,4.35
2022-09-09T10:56:40.938Z,5.50
2022-09-09T10:59:13.525Z,5.13
2022-09-09T11:02:05.657Z,5.20
2022-09-09T11:04:57.487Z,5.15
2022-09-09T11:07:49.017Z,4.57
2022-09-09T11:10:26.485Z,4.43
2022-09-09T11:12:59.459Z,5.05
2022-09-09T11:15:47.963Z,4.50
2022-09-09T11:18:20.528Z,5.32
2022-09-09T11:20:50.504Z,4.68
2022-09-09T11:23:25.052Z,4.30
2022-09-09T11:26:00.156Z,4.65
2022-09-09T11:28:36.095Z,5.20
2022-09-09T11:31:24.080Z,4.43
2022-09-09T11:33:50.883Z,4.50
2022-09-09T11:36:50.450Z,4.32
2022-09-09T11:39:32.291Z,4.18
2022-09-09T11:42:20.473Z,4.22
2022-09-09T11:44:47.875Z,4.20
2022-09-09T11:47:31.737Z,4.05
2022-09-09T11:50:16.528Z,4.32
2022-09-09T11:52:50.561Z,3.92
2022-09-09T11:55:38.193Z,3.92
2022-09-09T11:58:10.086Z,3.83
2022-09-09T12:00:41.394Z,2.80
2022-09-09T12:03:45.410Z,2.10
2022-09-09T12:06:15.270Z,2.30
2022-09-09T12:08:50.033Z,3.00
2022-09-09T12:11:28.198Z,1.77
2022-09-09T12:13:57.811Z,2.70
2022-09-09T12:16:39.728Z,16.65
2022-09-09T12:19:26.480Z,4.25
2022-09-09T12:22:07.405Z,3.53
2022-09-09T12:24:48.087Z,3.60
2022-09-09T12:27:22.790Z,4.15
2022-09-09T12:30:12.041Z,5.13
2022-09-09T12:32:40.318Z,3.58
2022-09-09T12:35:21.660Z,2.97
2022-09-09T12:37:59.519Z,3.08
2022-09-09T12:40:33.559Z,2.28
2022-09-09T12:43:01.286Z,2.22
2022-09-09T12:45:34.059Z,2.00
2022-09-09T12:48:09.644Z,2.42
2022-09-09T12:50:39.882Z,3.78
2022-09-09T12:53:16.938Z,3.45
2022-09-09T12:55:53.561Z,2.38
2022-09-09T12:58:21.939Z,3.30
2022-09-09T13:00:54.152Z,2.15
2022-09-09T13:03:22.332Z,2.28
2022-09-09T13:05:50.381Z,2.38
2022-09-09T13:08:26.278Z,7.35
2022-09-09T13:11:04.252Z,2.90
2022-09-09T13:13:37.887Z,3.63
2022-09-09T13:16:08.358Z,2.90
2022-09-09T13:18:37.661Z,3.60
2022-09-09T13:21:05.096Z,3.60
2022-09-09T13:23:36.449Z,5.32
2022-09-09T13:26:25.090Z,2.85
2022-09-09T13:28:54.101Z,2.80
2022-09-09T13:31:26.735Z,2.33
2022-09-09T13:33:54.283Z,3.90
2022-09-09T13:36:42.782Z,4.75
2022-09-09T13:39:19.466Z,4.38
2022-09-09T13:41:49.765Z,5.40
2022-09-09T13:44:26.832Z,4.50
2022-09-09T13:47:20.855Z,3.55
2022-09-09T13:49:48.515Z,5.45
2022-09-09T13:52:20.081Z,5.57
2022-09-09T13:54:52.228Z,4.88
2022-09-09T13:57:26.335Z,4.25
2022-09-09T14:00:11.271Z,3.92
2022-09-09T14:02:40.344Z,3.53
2022-09-09T14:05:07.660Z,3.92
2022-09-09T14:07:34.571Z,4.07
2022-09-09T14:10:01.625Z,4.20
2022-09-09T14:12:34.086Z,3.97
2022-09-09T14:15:01.014Z,4.35
2022-09-09T14:17:31.455Z,3.97
2022-09-09T14:19:59.075Z,3.90
2022-09-09T14:22:26.875Z,4.15
2022-09-09T14:24:53.771Z,4.10
2022-09-09T14:27:20.947Z,4.22
2022-09-09T14:29:48.040Z,4.35
2022-09-09T14:32:15.073Z,4.32
2022-09-09T14:34:41.942Z,4.38
2022-09-09T14:37:08.851Z,5.30
2022-09-09T14:39:36.180Z,6.40
2022-09-09T14:42:03.516Z,5.80
2022-09-09T14:44:49.090Z,4.90
2022-09-09T14:47:15.994Z,4.38
2022-09-09T14:49:45.161Z,5.13
2022-09-09T14:52:14.204Z,4.55
2022-09-09T14:54:41.331Z,4.88
2022-09-09T14:57:08.312Z,3.95
2022-09-09T14:59:35.706Z,5.05
2022-09-09T15:02:05.487Z,4.68
2022-09-09T15:04:33.123Z,5.22
2022-09-09T15:07:00.026Z,5.63
2022-09-09T15:09:27.424Z,4.82
2022-09-09T15:11:54.546Z,4.80
2022-09-09T15:14:23.952Z,6.18
2022-09-09T15:16:52.702Z,4.63
2022-09-09T15:19:19.762Z,4.43
2022-09-09T15:21:46.654Z,4.20
2022-09-09T15:24:33.195Z,3.80
2022-09-09T15:27:00.273Z,4.30
2022-09-09T15:29:27.251Z,3.80
2022-09-09T15:31:57.291Z,3.97
2022-09-09T15:34:24.152Z,5.07
2022-09-09T15:36:51.295Z,4.63
2022-09-09T15:39:19.311Z,4.90
2022-09-09T15:41:47.962Z,4.70
2022-09-09T15:44:16.782Z,5.20
2022-09-09T15:46:46.111Z,5.25
2022-09-09T15:49:23.195Z,5.28
2022-09-09T15:51:55.364Z,6.38
2022-09-09T15:54:25.133Z,5.47
2022-09-09T15:57:00.921Z,5.35
2022-09-09T15:59:30.063Z,5.40
2022-09-09T16:01:57.139Z,5.88
2022-09-09T16:04:25.595Z,7.55
2022-09-09T16:07:01.402Z,5.72
2022-09-09T16:09:29.243Z,6.15
2022-09-09T16:12:02.051Z,6.32
2022-09-09T16:14:35.138Z,6.55
2022-09-09T16:17:02.234Z,6.05
2022-09-09T16:19:29.281Z,4.88
2022-09-09T16:21:56.251Z,5.28
2022-09-09T16:24:24.725Z,5.95
2022-09-09T16:27:10.162Z,5.78
2022-09-09T16:29:37.332Z,6.15
2022-09-09T16:32:04.946Z,6.30
2022-09-09T16:34:31.745Z,5.25
2022-09-09T16:36:58.604Z,5.93
2022-09-09T16:39:25.704Z,6.72
2022-09-09T16:41:53.411Z,6.32
2022-09-09T16:44:20.585Z,6.53
2022-09-09T16:46:49.974Z,5.70
2022-09-09T16:49:17.489Z,5.85
2022-09-09T16:51:54.352Z,4.85
2022-09-09T16:54:23.047Z,5.40
2022-09-09T16:56:50.034Z,5.57
2022-09-09T16:59:19.493Z,6.10
2022-09-09T17:01:49.006Z,5.60
2022-09-09T17:04:29.155Z,5.50
2022-09-09T17:06:57.049Z,5.03
2022-09-09T17:09:28.622Z,6.53
2022-09-09T17:11:55.962Z,6.60
2022-09-09T17:14:23.454Z,5.80
2022-09-09T17:16:50.724Z,5.25
2022-09-09T17:19:18.098Z,6.63
2022-09-09T17:22:15.439Z,5.82
2022-09-09T17:24:35.473Z,5.90
2022-09-09T17:27:03.365Z,5.45
2022-09-09T17:29:30.357Z,6.10
2022-09-09T17:31:57.619Z,5.45
2022-09-09T17:34:26.376Z,5.90
2022-09-09T17:36:53.373Z,5.60
2022-09-09T17:39:20.673Z,4.80
2022-09-09T17:41:47.652Z,6.53
2022-09-09T17:44:14.705Z,6.32
2022-09-09T17:47:00.629Z,5.82
2022-09-09T17:49:27.544Z,5.65
2022-09-09T17:51:55.564Z,6.50
2022-09-09T17:54:22.682Z,5.75
2022-09-09T17:56:54.479Z,5.60
2022-09-09T17:59:21.592Z,6.30
2022-09-09T18:01:50.962Z,5.65
2022-09-09T18:04:18.801Z,5.95
2022-09-09T18:06:51.856Z,5.43
2022-09-09T18:09:22.271Z,5.10
2022-09-09T18:11:54.700Z,6.32
2022-09-09T18:14:27.803Z,5.45
2022-09-09T18:16:54.882Z,5.65
2022-09-09T18:19:25.213Z,5.82
2022-09-09T18:21:52.935Z,4.88
2022-09-09T18:24:21.321Z,6.15
2022-09-09T18:26:49.794Z,5.40
2022-09-09T18:29:24.945Z,5.63
2022-09-09T18:31:53.455Z,5.32
2022-09-09T18:34:22.354Z,6.63
2022-09-09T18:36:53.902Z,5.10
2022-09-09T18:39:22.929Z,5.07
2022-09-09T18:41:53.195Z,5.72
2022-09-09T18:44:26.225Z,5.35
2022-09-09T18:46:54.017Z,6.00
2022-09-09T18:49:22.596Z,5.65
2022-09-09T18:51:49.707Z,6.63
2022-09-09T18:54:33.430Z,5.90
2022-09-09T18:57:19.019Z,5.45
2022-09-09T18:59:46.175Z,5.65
2022-09-09T19:02:13.134Z,5.85
2022-09-09T19:04:40.171Z,6.47
2022-09-09T19:07:07.110Z,6.85
2022-09-09T19:09:34.101Z,7.18
2022-09-09T19:12:01.650Z,6.07
2022-09-09T19:14:29.492Z,6.28
2022-09-09T19:16:56.938Z,5.82
2022-09-09T19:19:27.032Z,6.18
2022-09-09T19:21:58.018Z,6.22
2022-09-09T19:24:28.316Z,6.72
2022-09-09T19:27:01.781Z,6.25
2022-09-09T19:29:32.011Z,6.38
2022-09-09T19:34:48.982Z,5.93
2022-09-09T19:37:18.614Z,6.00
2022-09-09T19:39:46.752Z,6.57
2022-09-09T19:42:13.955Z,7.53
2022-09-09T19:44:41.575Z,7.30
2022-09-09T19:47:08.665Z,6.18
2022-09-09T19:49:37.161Z,6.55
2022-09-09T19:52:05.510Z,8.18
2022-09-09T19:54:33.024Z,6.55
2022-09-09T19:57:01.330Z,5.85
2022-09-09T19:59:46.984Z,5.85
2022-09-09T20:02:15.827Z,4.72
2022-09-09T20:04:43.679Z,5.18
2022-09-09T20:07:10.841Z,5.60
2022-09-09T20:09:37.981Z,5.13
2022-09-09T20:12:23.751Z,5.63
2022-09-09T20:14:50.660Z,5.13
2022-09-09T20:17:17.720Z,4.70
2022-09-09T20:19:44.732Z,4.75
2022-09-09T20:22:11.695Z,4.57
2022-09-09T20:24:57.191Z,3.78
2022-09-09T20:27:24.330Z,5.07
2022-09-09T20:29:51.352Z,4.72
2022-09-09T20:32:18.398Z,4.57
2022-09-09T20:34:48.474Z,5.28
2022-09-09T20:37:15.564Z,4.65
2022-09-09T20:39:42.570Z,5.40
2022-09-09T20:42:09.509Z,5.05
2022-09-09T20:44:36.546Z,5.75
2022-09-09T20:47:06.789Z,4.70
2022-09-09T20:49:36.671Z,5.75
2022-09-09T20:52:04.510Z,5.68
2022-09-09T20:54:31.578Z,5.38
2022-09-09T20:57:00.529Z,5.70
2022-09-09T20:59:51.194Z,6.10
2022-09-09T21:02:21.764Z,4.95
2022-09-09T21:04:49.470Z,4.97
2022-09-09T21:07:16.412Z,4.88
2022-09-09T21:09:43.420Z,4.65
2022-09-09T21:12:10.630Z,5.25
2022-09-09T21:14:37.623Z,5.40
2022-09-09T21:17:04.694Z,5.43
2022-09-09T21:19:35.890Z,5.70
2022-09-09T21:22:03.057Z,5.25
2022-09-09T21:24:30.198Z,5.40
2022-09-09T21:26:57.175Z,5.30
2022-09-09T21:29:24.330Z,5.88
2022-09-09T21:31:51.300Z,3.97
2022-09-09T21:34:18.565Z,3.22
2022-09-09T21:36:45.362Z,4.38
2022-09-09T21:39:12.336Z,4.30
2022-09-09T21:41:40.195Z,4.20
2022-09-09T21:44:09.280Z,5.05
2022-09-09T21:46:37.584Z,4.70
2022-09-09T21:49:04.770Z,5.50
2022-09-09T21:51:31.676Z,5.00
2022-09-09T21:53:58.651Z,4.95
2022-09-09T21:56:26.933Z,5.13
2022-09-09T21:59:04.054Z,4.93
2022-09-09T22:01:33.626Z,5.97
2022-09-09T22:04:01.133Z,7.10
2022-09-09T22:06:28.135Z,6.18
2022-09-09T22:08:59.151Z,6.50
2022-09-09T22:11:26.394Z,6.00
2022-09-09T22:13:56.238Z,5.35
2022-09-09T22:16:26.600Z,5.35
2022-09-09T22:18:57.023Z,5.43
2022-09-09T22:21:26.348Z,5.60
2022-09-09T22:23:55.944Z,5.53
2022-09-09T22:26:24.785Z,7.05
2022-09-09T22:28:54.047Z,6.72
2022-09-09T22:31:23.236Z,7.80
2022-09-09T22:33:52.136Z,6.30
2022-09-09T22:36:20.485Z,6.85
2022-09-09T22:38:49.150Z,7.40
2022-09-09T22:41:17.337Z,6.65
2022-09-09T22:43:44.866Z,7.88
2022-09-09T22:46:12.325Z,8.57
2022-09-09T22:48:40.351Z,7.25
2022-09-09T22:51:14.254Z,7.28
2022-09-09T22:53:42.966Z,7.80
2022-09-09T22:56:15.800Z,7.55
2022-09-09T22:58:42.832Z,7.63
2022-09-09T23:01:14.062Z,7.00
2022-09-09T23:03:42.462Z,7.13
2022-09-09T23:06:11.832Z,7.88
2022-09-09T23:08:39.212Z,9.38
2022-09-09T23:11:11.692Z,8.23
2022-09-09T23:13:41.609Z,6.45
2022-09-09T23:16:13.781Z,6.72
2022-09-09T23:18:41.080Z,6.90
2022-09-09T23:21:09.315Z,6.32
2022-09-09T23:23:36.882Z,6.35
2022-09-09T23:26:05.473Z,6.53
2022-09-09T23:28:33.291Z,7.65
2022-09-09T23:31:00.296Z,8.15
2022-09-09T23:33:27.671Z,8.05
2022-09-09T23:36:14.931Z,7.00
2022-09-09T23:38:41.972Z,6.15
2022-09-09T23:41:11.802Z,5.97
2022-09-09T23:43:43.830Z,6.05
2022-09-09T23:46:16.130Z,6.32
2022-09-09T23:48:43.871Z,6.05
2022-09-09T23:51:17.632Z,6.20
2022-09-09T23:53:47.180Z,6.22
2022-09-09T23:56:14.575Z,6.05
2022-09-09T23:58:42.295Z,6.85
